Time;durP1;ratioP1;P1;durP2;ratioP2;P2;SDS_P1;SDS_P2;PMS_P1;PMS_P2;Temp;Humidity;BMP_temperature;BMP_pressure;BME280_temperature;BME280_humidity;BME280_pressure;Samples;Min_cycle;Max_cycle;Signal;HPM_P1;HPM_P2
2022/09/18 00:00:42;;;;;;;;;;;6.40;99.90;;;;;;4212723;28;20377;-57
2022/09/18 00:03:03;;;;;;;;;;;6.20;99.90;;;;;;4216769;28;20295;-57
2022/09/18 00:05:24;;;;;;;;;;;6.10;99.90;;;;;;4212979;28;19935;-56
2022/09/18 00:07:44;;;;;;;;;;;6.10;99.90;;;;;;4196162;28;20430;-57
2022/09/18 00:10:05;;;;;;;;;;;6.10;99.90;;;;;;4207104;28;20414;-57
2022/09/18 00:12:25;;;;;;;;;;;6.00;99.90;;;;;;4212619;28;19930;-57
2022/09/18 00:14:46;;;;;;;;;;;6.00;99.90;;;;;;4212902;28;19939;-56
2022/09/18 00:17:06;;;;;;;;;;;5.80;99.90;;;;;;4196193;28;20271;-56
2022/09/18 00:19:28;;;;;;;;;;;5.80;99.90;;;;;;4206760;28;19935;-57
2022/09/18 00:21:50;;;;;;;;;;;5.80;99.90;;;;;;4209139;28;20036;-56
2022/09/18 00:24:11;;;;;;;;;;;5.80;99.90;;;;;;4195669;28;20429;-57
2022/09/18 00:26:32;;;;;;;;;;;5.90;99.90;;;;;;4211816;28;19977;-57
2022/09/18 00:28:53;;;;;;;;;;;5.80;99.90;;;;;;4212462;28;20455;-56
2022/09/18 00:31:15;;;;;;;;;;;5.90;99.90;;;;;;4212754;28;20013;-57
2022/09/18 00:33:36;;;;;;;;;;;5.80;99.90;;;;;;4212407;28;19935;-57
2022/09/18 00:36:01;;;;;;;;;;;5.80;99.90;;;;;;4211689;28;20394;-57
2022/09/18 00:38:21;;;;;;;;;;;5.80;99.90;;;;;;4211461;28;20346;-57
2022/09/18 00:40:41;;;;;;;;;;;5.70;99.90;;;;;;4212389;28;20041;-57
2022/09/18 00:43:25;;;;;;;;;;;5.60;99.90;;;;;;4211424;28;19989;-57
2022/09/18 00:45:48;;;;;;;;;;;5.60;99.90;;;;;;4212506;28;19931;-57
2022/09/18 00:48:08;;;;;;;;;;;5.50;99.90;;;;;;4211455;28;20353;-57
2022/09/18 00:50:28;;;;;;;;;;;5.40;99.90;;;;;;4212022;28;19938;-57
2022/09/18 00:52:57;;;;;;;;;;;5.40;99.90;;;;;;4195759;28;20003;-57
2022/09/18 00:55:21;;;;;;;;;;;5.40;99.90;;;;;;4195600;28;19939;-57
2022/09/18 00:57:46;;;;;;;;;;;5.40;99.90;;;;;;4205029;28;20500;-57
2022/09/18 01:00:13;;;;;;;;;;;5.40;99.90;;;;;;4198985;28;19935;-57
2022/09/18 01:02:34;;;;;;;;;;;5.40;99.90;;;;;;4212453;28;19935;-57
2022/09/18 01:04:55;;;;;;;;;;;5.50;99.90;;;;;;4212323;28;19989;-57
2022/09/18 01:07:15;;;;;;;;;;;5.40;99.90;;;;;;4212278;28;19970;-57
2022/09/18 01:10:08;;;;;;;;;;;5.30;99.90;;;;;;4212006;28;19931;-55
2022/09/18 01:12:47;;;;;;;;;;;5.50;99.90;;;;;;4194569;28;19938;-57
2022/09/18 01:15:29;;;;;;;;;;;5.20;99.90;;;;;;4212065;28;19931;-56
2022/09/18 01:17:52;;;;;;;;;;;5.40;99.90;;;;;;4196748;28;19935;-57
2022/09/18 01:20:28;;;;;;;;;;;5.30;99.90;;;;;;4212018;28;20279;-56
2022/09/18 01:23:05;;;;;;;;;;;5.20;99.90;;;;;;4212279;28;19935;-56
2022/09/18 01:25:32;;;;;;;;;;;5.40;99.90;;;;;;4211743;28;20397;-57
2022/09/18 01:28:11;;;;;;;;;;;5.50;99.90;;;;;;4212512;28;19931;-56
2022/09/18 01:30:32;;;;;;;;;;;5.60;99.90;;;;;;4195162;28;19931;-57
2022/09/18 01:32:57;;;;;;;;;;;5.60;99.90;;;;;;4206318;28;19930;-57
2022/09/18 01:35:20;;;;;;;;;;;5.40;99.90;;;;;;4211678;28;19946;-57
2022/09/18 01:38:07;;;;;;;;;;;5.40;99.90;;;;;;4215154;28;20464;-57
2022/09/18 01:40:30;;;;;;;;;;;5.30;99.90;;;;;;4215696;28;19974;-57
2022/09/18 01:42:52;;;;;;;;;;;5.30;99.90;;;;;;4215200;28;19939;-57
2022/09/18 01:45:15;;;;;;;;;;;5.20;99.90;;;;;;4214659;28;19935;-57
2022/09/18 01:47:38;;;;;;;;;;;5.10;99.90;;;;;;4214329;28;19997;-57
2022/09/18 01:50:00;;;;;;;;;;;5.10;99.90;;;;;;4215012;28;19931;-57
2022/09/18 01:52:50;;;;;;;;;;;5.00;99.90;;;;;;4215438;28;19957;-57
2022/09/18 01:55:14;;;;;;;;;;;5.00;99.90;;;;;;4186214;28;20015;-57
2022/09/18 01:57:42;;;;;;;;;;;5.00;99.90;;;;;;4189140;28;19958;-57
2022/09/18 02:00:06;;;;;;;;;;;5.00;99.90;;;;;;4179486;28;19991;-57
2022/09/18 02:02:31;;;;;;;;;;;5.00;99.90;;;;;;4166101;28;20427;-57
2022/09/18 02:04:54;;;;;;;;;;;5.10;99.90;;;;;;4179217;28;19996;-57
2022/09/18 02:07:22;;;;;;;;;;;5.10;99.90;;;;;;4179325;28;19939;-57
2022/09/18 02:09:43;;;;;;;;;;;5.00;99.90;;;;;;4179451;28;19959;-57
2022/09/18 02:12:06;;;;;;;;;;;5.10;99.90;;;;;;4163449;28;20344;-57
2022/09/18 02:14:28;;;;;;;;;;;5.00;99.90;;;;;;4174314;28;20371;-57
2022/09/18 02:16:58;;;;;;;;;;;5.00;99.90;;;;;;4179545;28;19989;-57
2022/09/18 02:19:21;;;;;;;;;;;5.00;99.90;;;;;;4179012;28;19994;-56
2022/09/18 02:21:44;;;;;;;;;;;5.00;99.90;;;;;;4162685;28;19971;-57
2022/09/18 02:24:05;;;;;;;;;;;5.20;99.90;;;;;;4174873;28;19931;-57
2022/09/18 02:26:26;;;;;;;;;;;5.00;99.90;;;;;;4179274;28;19936;-56
2022/09/18 02:28:47;;;;;;;;;;;4.90;99.90;;;;;;4179509;28;20554;-57
2022/09/18 02:31:11;;;;;;;;;;;4.70;99.90;;;;;;4183366;28;19934;-57
2022/09/18 02:33:33;;;;;;;;;;;4.60;99.90;;;;;;4208978;28;19934;-56
2022/09/18 02:36:02;;;;;;;;;;;4.50;99.90;;;;;;4213928;28;19966;-57
2022/09/18 02:38:26;;;;;;;;;;;4.60;99.90;;;;;;4214797;28;19931;-57
2022/09/18 02:40:50;;;;;;;;;;;4.90;99.90;;;;;;4197574;28;19935;-57
2022/09/18 02:43:33;;;;;;;;;;;5.10;99.90;;;;;;4209692;28;19931;-57
2022/09/18 02:46:03;;;;;;;;;;;5.10;99.90;;;;;;4214487;28;19935;-57
2022/09/18 02:48:23;;;;;;;;;;;5.00;99.90;;;;;;4212668;28;20021;-57
2022/09/18 02:50:52;;;;;;;;;;;5.00;99.90;;;;;;4215419;28;20386;-57
2022/09/18 02:53:17;;;;;;;;;;;5.00;99.90;;;;;;4213261;28;19935;-57
2022/09/18 02:55:43;;;;;;;;;;;5.00;99.90;;;;;;4213616;28;20370;-57
2022/09/18 02:58:05;;;;;;;;;;;5.00;99.90;;;;;;4214196;28;20012;-57
2022/09/18 03:00:27;;;;;;;;;;;5.00;99.90;;;;;;4214015;28;19935;-57
2022/09/18 03:02:50;;;;;;;;;;;4.90;99.90;;;;;;4213733;28;19977;-57
2022/09/18 03:05:11;;;;;;;;;;;4.90;99.90;;;;;;4204350;28;20397;-57
2022/09/18 03:07:31;;;;;;;;;;;5.00;99.90;;;;;;4199955;28;19931;-57
2022/09/18 03:09:51;;;;;;;;;;;5.00;99.90;;;;;;4213737;28;20018;-57
2022/09/18 03:12:13;;;;;;;;;;;4.90;99.90;;;;;;4213828;28;19989;-57
2022/09/18 03:14:34;;;;;;;;;;;5.00;99.90;;;;;;4213976;28;19995;-57
2022/09/18 03:16:54;;;;;;;;;;;5.20;99.90;;;;;;4213222;28;19978;-57
2022/09/18 03:19:15;;;;;;;;;;;5.10;99.90;;;;;;4208180;28;19978;-57
2022/09/18 03:21:36;;;;;;;;;;;5.00;99.90;;;;;;4213710;28;20279;-57
2022/09/18 03:23:56;;;;;;;;;;;4.90;99.90;;;;;;4213449;28;19934;-57
2022/09/18 03:26:18;;;;;;;;;;;4.90;99.90;;;;;;4213896;28;19931;-57
2022/09/18 03:28:39;;;;;;;;;;;4.90;99.90;;;;;;4213879;28;19935;-57
2022/09/18 03:30:59;;;;;;;;;;;4.90;99.90;;;;;;4213385;28;20310;-57
2022/09/18 03:33:19;;;;;;;;;;;4.80;99.90;;;;;;4207984;28;19935;-57
2022/09/18 03:35:41;;;;;;;;;;;4.90;99.90;;;;;;4196500;28;20025;-57
2022/09/18 03:38:01;;;;;;;;;;;4.80;99.90;;;;;;4196546;28;19931;-57
2022/09/18 03:40:22;;;;;;;;;;;4.70;99.90;;;;;;4196685;28;20009;-57
2022/09/18 03:42:43;;;;;;;;;;;4.60;99.90;;;;;;4196749;28;20371;-57
2022/09/18 03:45:04;;;;;;;;;;;4.60;99.90;;;;;;4196486;28;19971;-56
2022/09/18 03:47:25;;;;;;;;;;;4.50;99.90;;;;;;4208659;28;20028;-57
2022/09/18 03:49:45;;;;;;;;;;;4.60;99.90;;;;;;4214071;28;19935;-57
2022/09/18 03:52:06;;;;;;;;;;;4.60;99.90;;;;;;4213306;28;19947;-57
2022/09/18 03:54:26;;;;;;;;;;;4.80;99.90;;;;;;4213476;28;19994;-57
2022/09/18 03:56:47;;;;;;;;;;;4.60;99.90;;;;;;4213254;28;19974;-57
2022/09/18 03:59:08;;;;;;;;;;;4.70;99.90;;;;;;4213075;28;19931;-57
2022/09/18 04:01:28;;;;;;;;;;;4.60;99.90;;;;;;4197791;28;19936;-57
2022/09/18 04:03:50;;;;;;;;;;;4.40;99.90;;;;;;4196269;28;20024;-57
2022/09/18 04:06:11;;;;;;;;;;;4.50;99.90;;;;;;4196489;28;19973;-57
2022/09/18 04:08:31;;;;;;;;;;;4.40;99.90;;;;;;4196413;28;20809;-57
2022/09/18 04:10:52;;;;;;;;;;;4.50;99.90;;;;;;4196036;28;19935;-57
2022/09/18 04:13:12;;;;;;;;;;;4.40;99.90;;;;;;4197170;28;19930;-57
2022/09/18 04:15:33;;;;;;;;;;;4.40;99.90;;;;;;4213288;28;19930;-57
2022/09/18 04:17:54;;;;;;;;;;;4.40;99.90;;;;;;4212486;28;19935;-57
2022/09/18 04:20:15;;;;;;;;;;;4.40;99.90;;;;;;4212968;28;19931;-56
2022/09/18 04:22:36;;;;;;;;;;;4.50;99.90;;;;;;4212818;28;19934;-57
2022/09/18 04:24:56;;;;;;;;;;;4.30;99.90;;;;;;4195999;28;20008;-57
2022/09/18 04:27:17;;;;;;;;;;;4.30;99.90;;;;;;4207022;28;20418;-57
2022/09/18 04:29:39;;;;;;;;;;;4.20;99.90;;;;;;4211554;28;19974;-57
2022/09/18 04:31:59;;;;;;;;;;;4.20;99.90;;;;;;4212431;28;19938;-57
2022/09/18 04:34:20;;;;;;;;;;;4.20;99.90;;;;;;4195649;28;19958;-57
2022/09/18 04:36:40;;;;;;;;;;;4.20;99.90;;;;;;4206431;28;19935;-57
2022/09/18 04:39:00;;;;;;;;;;;4.20;99.90;;;;;;4210669;28;19935;-57
2022/09/18 04:41:21;;;;;;;;;;;4.20;99.90;;;;;;4195411;28;20028;-57
2022/09/18 04:43:42;;;;;;;;;;;4.10;99.90;;;;;;4217073;28;20464;-57
2022/09/18 04:46:02;;;;;;;;;;;4.10;99.90;;;;;;4216887;28;20346;-57
2022/09/18 04:48:23;;;;;;;;;;;4.10;99.90;;;;;;4211101;28;19931;-57
2022/09/18 04:50:47;;;;;;;;;;;4.10;99.90;;;;;;4212476;28;20405;-57
2022/09/18 04:53:07;;;;;;;;;;;4.10;99.90;;;;;;4212441;28;20019;-57
2022/09/18 04:55:28;;;;;;;;;;;4.00;99.90;;;;;;4212321;28;19930;-57
2022/09/18 04:57:48;;;;;;;;;;;3.90;99.90;;;;;;4204515;28;19931;-57
2022/09/18 05:00:13;;;;;;;;;;;3.90;99.90;;;;;;4212495;28;19942;-57
2022/09/18 05:02:34;;;;;;;;;;;3.90;99.90;;;;;;4212169;28;20330;-57
2022/09/18 05:04:54;;;;;;;;;;;4.10;99.90;;;;;;4212339;28;19948;-57
2022/09/18 05:07:14;;;;;;;;;;;4.10;99.90;;;;;;4212168;28;20329;-57
2022/09/18 05:09:35;;;;;;;;;;;4.00;99.90;;;;;;4195272;28;19935;-56
2022/09/18 05:11:55;;;;;;;;;;;3.90;99.90;;;;;;4208772;28;20032;-56
2022/09/18 05:14:16;;;;;;;;;;;3.80;99.90;;;;;;4215867;28;19993;-56
2022/09/18 05:16:36;;;;;;;;;;;3.90;99.90;;;;;;4215792;28;19931;-57
2022/09/18 05:18:57;;;;;;;;;;;4.00;99.90;;;;;;4199020;28;19947;-57
2022/09/18 05:21:17;;;;;;;;;;;4.00;99.90;;;;;;4209113;28;20327;-56
2022/09/18 05:23:38;;;;;;;;;;;3.90;99.90;;;;;;4215520;28;19931;-57
2022/09/18 05:25:59;;;;;;;;;;;4.00;99.90;;;;;;4215592;28;19946;-57
2022/09/18 05:28:20;;;;;;;;;;;3.90;99.90;;;;;;4215308;28;19935;-56
2022/09/18 05:30:40;;;;;;;;;;;3.90;99.90;;;;;;4215234;28;19965;-57
2022/09/18 05:33:06;;;;;;;;;;;4.10;99.90;;;;;;4215030;28;19935;-56
2022/09/18 05:35:27;;;;;;;;;;;4.20;99.90;;;;;;4215354;28;19985;-57
2022/09/18 05:37:51;;;;;;;;;;;4.40;99.90;;;;;;4215050;28;20430;-56
2022/09/18 05:40:11;;;;;;;;;;;3.90;99.90;;;;;;4221956;28;19934;-57
2022/09/18 05:42:32;;;;;;;;;;;3.80;99.90;;;;;;4230547;28;20382;-57
2022/09/18 05:44:53;;;;;;;;;;;3.80;99.90;;;;;;4215226;28;19981;-57
2022/09/18 05:47:16;;;;;;;;;;;3.90;99.90;;;;;;4214836;28;19931;-57
2022/09/18 05:49:36;;;;;;;;;;;4.20;99.90;;;;;;4215188;28;19973;-57
2022/09/18 05:51:57;;;;;;;;;;;4.20;99.90;;;;;;4205220;28;20037;-57
2022/09/18 05:54:18;;;;;;;;;;;4.10;99.90;;;;;;4214156;28;19935;-57
2022/09/18 05:56:38;;;;;;;;;;;4.20;99.90;;;;;;4215168;28;19931;-57
2022/09/18 05:58:58;;;;;;;;;;;4.20;99.90;;;;;;4214366;28;19942;-57
2022/09/18 06:01:19;;;;;;;;;;;4.20;99.90;;;;;;4214807;28;20397;-57
2022/09/18 06:03:39;;;;;;;;;;;4.20;99.90;;;;;;4198306;28;19981;-57
2022/09/18 06:06:00;;;;;;;;;;;4.30;99.90;;;;;;4207999;28;19946;-57
2022/09/18 06:08:21;;;;;;;;;;;4.20;99.90;;;;;;4214753;28;19968;-57
2022/09/18 06:10:42;;;;;;;;;;;4.30;99.90;;;;;;4214804;28;19978;-58
2022/09/18 06:13:03;;;;;;;;;;;4.40;99.90;;;;;;4214552;28;19978;-57
2022/09/18 06:15:23;;;;;;;;;;;4.60;99.90;;;;;;4212142;28;19942;-57
2022/09/18 06:17:49;;;;;;;;;;;4.70;99.90;;;;;;4214743;28;19973;-57
2022/09/18 06:20:10;;;;;;;;;;;4.80;99.90;;;;;;4197877;28;19932;-57
2022/09/18 06:22:30;;;;;;;;;;;4.70;99.90;;;;;;4211925;28;19978;-56
2022/09/18 06:24:50;;;;;;;;;;;4.80;99.90;;;;;;4205999;28;20406;-56
2022/09/18 06:27:11;;;;;;;;;;;4.70;99.90;;;;;;4211909;28;19935;-60
2022/09/18 06:29:31;;;;;;;;;;;4.80;99.90;;;;;;4214144;28;20470;-60
2022/09/18 06:31:52;;;;;;;;;;;4.90;99.90;;;;;;4213947;28;19935;-60
2022/09/18 06:34:12;;;;;;;;;;;5.00;99.90;;;;;;4213806;28;19973;-60
2022/09/18 06:36:32;;;;;;;;;;;5.20;99.90;;;;;;4221327;28;19935;-60
2022/09/18 06:38:53;;;;;;;;;;;5.30;99.90;;;;;;4207076;28;19935;-60
2022/09/18 06:41:13;;;;;;;;;;;5.50;99.90;;;;;;4214049;28;20005;-60
2022/09/18 06:43:34;;;;;;;;;;;5.70;99.90;;;;;;4213760;28;19935;-60
2022/09/18 06:45:55;;;;;;;;;;;5.90;99.90;;;;;;4212749;28;20022;-60
2022/09/18 06:48:15;;;;;;;;;;;6.00;99.90;;;;;;4211993;28;19977;-60
2022/09/18 06:50:35;;;;;;;;;;;6.20;99.90;;;;;;4214257;28;20166;-60
2022/09/18 06:53:03;;;;;;;;;;;6.30;99.90;;;;;;4213358;28;19981;-60
2022/09/18 06:55:28;;;;;;;;;;;6.50;99.90;;;;;;4214000;28;19977;-60
2022/09/18 06:57:52;;;;;;;;;;;6.50;99.90;;;;;;4197215;28;19974;-60
2022/09/18 07:00:13;;;;;;;;;;;6.70;99.90;;;;;;4207066;28;19935;-60
2022/09/18 07:02:33;;;;;;;;;;;6.80;99.90;;;;;;4213790;28;19981;-60
2022/09/18 07:04:54;;;;;;;;;;;7.00;99.90;;;;;;4213193;28;19931;-60
2022/09/18 07:07:14;;;;;;;;;;;7.30;99.90;;;;;;4208388;28;19934;-60
2022/09/18 07:09:35;;;;;;;;;;;7.70;99.90;;;;;;4197349;28;19974;-60
2022/09/18 07:11:56;;;;;;;;;;;8.10;99.90;;;;;;4198388;28;19974;-60
2022/09/18 07:14:16;;;;;;;;;;;8.30;99.90;;;;;;4213995;28;20809;-60
2022/09/18 07:16:37;;;;;;;;;;;8.70;99.90;;;;;;4213654;28;19974;-60
2022/09/18 07:18:57;;;;;;;;;;;8.90;99.90;;;;;;4211677;28;20136;-60
2022/09/18 07:21:17;;;;;;;;;;;9.10;99.90;;;;;;4197412;28;19932;-61
2022/09/18 07:23:38;;;;;;;;;;;9.30;99.90;;;;;;4213436;28;19935;-60
2022/09/18 07:25:59;;;;;;;;;;;9.70;99.90;;;;;;4213702;28;19935;-60
2022/09/18 07:28:20;;;;;;;;;;;9.90;99.90;;;;;;4213461;28;19973;-61
2022/09/18 07:30:40;;;;;;;;;;;10.20;99.90;;;;;;4212840;28;20444;-60
2022/09/18 07:33:01;;;;;;;;;;;10.50;99.90;;;;;;4196751;28;20312;-61
2022/09/18 07:35:21;;;;;;;;;;;10.60;99.90;;;;;;4207550;28;19932;-61
2022/09/18 07:37:42;;;;;;;;;;;10.70;99.90;;;;;;4213570;28;19966;-61
2022/09/18 07:40:02;;;;;;;;;;;10.80;99.90;;;;;;4213541;28;19982;-61
2022/09/18 07:42:23;;;;;;;;;;;10.90;99.90;;;;;;4213647;28;19954;-61
2022/09/18 07:44:43;;;;;;;;;;;11.20;99.90;;;;;;4211526;28;19950;-61
2022/09/18 07:47:04;;;;;;;;;;;11.40;99.90;;;;;;4200882;28;19931;-61
2022/09/18 07:49:24;;;;;;;;;;;11.50;99.90;;;;;;4213416;28;19977;-61
2022/09/18 07:51:44;;;;;;;;;;;11.70;99.90;;;;;;4212761;28;19935;-61
2022/09/18 07:54:05;;;;;;;;;;;12.10;99.90;;;;;;4212689;28;19934;-61
2022/09/18 07:56:25;;;;;;;;;;;12.10;99.90;;;;;;4213036;28;19981;-61
2022/09/18 07:58:45;;;;;;;;;;;12.20;99.90;;;;;;4196665;28;20373;-61
2022/09/18 08:01:06;;;;;;;;;;;12.30;99.90;;;;;;4209352;28;19935;-62
2022/09/18 08:03:26;;;;;;;;;;;12.40;99.90;;;;;;4212953;28;20068;-61
2022/09/18 08:05:46;;;;;;;;;;;12.70;99.90;;;;;;4212834;28;19935;-61
2022/09/18 08:08:08;;;;;;;;;;;13.00;99.90;;;;;;4195920;28;19970;-61
2022/09/18 08:10:29;;;;;;;;;;;13.00;99.90;;;;;;4207864;28;20283;-61
2022/09/18 08:12:52;;;;;;;;;;;13.20;99.90;;;;;;4200902;28;19938;-62
2022/09/18 08:15:12;;;;;;;;;;;13.20;99.90;;;;;;4212832;28;20388;-62
2022/09/18 08:17:32;;;;;;;;;;;13.20;99.90;;;;;;4196031;28;20407;-62
2022/09/18 08:19:53;;;;;;;;;;;13.40;99.90;;;;;;4206236;28;19939;-62
2022/09/18 08:22:13;;;;;;;;;;;13.70;99.90;;;;;;4212593;28;19982;-62
2022/09/18 08:24:33;;;;;;;;;;;13.80;99.90;;;;;;4212188;28;20422;-62
2022/09/18 08:26:56;;;;;;;;;;;14.00;99.90;;;;;;4212354;28;19950;-62
2022/09/18 08:29:19;;;;;;;;;;;14.10;99.90;;;;;;4209628;28;20045;-62
2022/09/18 08:31:39;;;;;;;;;;;14.20;99.90;;;;;;4197126;28;20296;-62
2022/09/18 08:33:59;;;;;;;;;;;14.50;99.90;;;;;;4212663;28;19938;-62
2022/09/18 08:36:20;;;;;;;;;;;14.70;99.90;;;;;;4211863;28;20032;-62
2022/09/18 08:38:40;;;;;;;;;;;14.90;99.90;;;;;;4205471;28;19935;-62
2022/09/18 08:41:06;;;;;;;;;;;15.10;99.90;;;;;;4200046;28;19932;-62
2022/09/18 08:43:41;;;;;;;;;;;15.20;99.90;;;;;;4208481;28;19930;-62
2022/09/18 08:46:04;;;;;;;;;;;15.30;99.90;;;;;;4206736;28;19935;-62
2022/09/18 08:48:26;;;;;;;;;;;15.30;99.90;;;;;;4198378;28;19994;-62
2022/09/18 08:50:53;;;;;;;;;;;15.30;99.90;;;;;;4204833;28;19935;-62
2022/09/18 08:53:20;;;;;;;;;;;15.50;99.90;;;;;;4195970;28;19935;-62
2022/09/18 08:55:41;;;;;;;;;;;15.70;99.90;;;;;;4195440;28;20403;-62
2022/09/18 08:58:05;;;;;;;;;;;15.90;99.90;;;;;;4208223;28;19934;-62
2022/09/18 09:00:30;;;;;;;;;;;16.00;99.90;;;;;;4205178;28;19958;-62
2022/09/18 09:02:56;;;;;;;;;;;16.00;99.90;;;;;;4208054;28;19931;-62
2022/09/18 09:05:19;;;;;;;;;;;16.10;99.90;;;;;;4200350;28;19967;-62
2022/09/18 09:07:42;;;;;;;;;;;16.20;99.90;;;;;;4209700;28;19970;-62
2022/09/18 09:10:13;;;;;;;;;;;16.60;99.90;;;;;;4206032;28;19931;-62
2022/09/18 09:12:42;;;;;;;;;;;16.90;99.90;;;;;;4195982;28;19933;-62
2022/09/18 09:15:10;;;;;;;;;;;17.00;99.90;;;;;;4195637;28;19932;-62
2022/09/18 09:17:45;;;;;;;;;;;17.30;99.90;;;;;;4195534;28;19978;-62
2022/09/18 09:20:26;;;;;;;;;;;17.40;99.90;;;;;;4207969;28;19930;-63
2022/09/18 09:22:57;;;;;;;;;;;17.30;99.90;;;;;;4211953;28;20547;-63
2022/09/18 09:25:17;;;;;;;;;;;17.50;99.90;;;;;;4212071;28;19977;-63
2022/09/18 09:27:40;;;;;;;;;;;17.50;99.60;;;;;;4212033;28;19978;-62
2022/09/18 09:30:19;;;;;;;;;;;17.60;99.90;;;;;;4225479;28;20295;-62
2022/09/18 09:32:43;;;;;;;;;;;17.70;98.60;;;;;;4200257;28;19952;-63
2022/09/18 09:35:16;;;;;;;;;;;17.70;99.10;;;;;;4196954;28;19971;-62
2022/09/18 09:37:42;;;;;;;;;;;18.10;98.90;;;;;;4211988;28;19931;-63
2022/09/18 09:40:07;;;;;;;;;;;18.60;98.60;;;;;;4199029;28;19969;-63
2022/09/18 09:42:40;;;;;;;;;;;18.80;95.90;;;;;;4211084;28;20286;-62
2022/09/18 09:45:15;;;;;;;;;;;19.10;96.60;;;;;;4210018;28;19931;-62
2022/09/18 09:47:40;;;;;;;;;;;19.10;95.80;;;;;;4208084;28;19970;-62
2022/09/18 09:50:04;;;;;;;;;;;19.30;95.60;;;;;;4199673;28;19967;-62
2022/09/18 09:52:25;;;;;;;;;;;19.50;94.70;;;;;;4204865;28;19990;-63
2022/09/18 09:54:47;;;;;;;;;;;19.50;94.60;;;;;;4204105;28;19973;-63
2022/09/18 09:57:25;;;;;;;;;;;19.70;94.40;;;;;;4206940;28;20405;-63
2022/09/18 10:00:10;;;;;;;;;;;19.90;93.30;;;;;;4207182;28;19931;-63
2022/09/18 10:02:51;;;;;;;;;;;20.10;92.70;;;;;;4213395;28;20031;-63
2022/09/18 10:05:14;;;;;;;;;;;20.20;92.00;;;;;;4208139;28;19931;-63
2022/09/18 10:07:36;;;;;;;;;;;20.60;90.90;;;;;;4212596;28;19954;-63
2022/09/18 10:09:57;;;;;;;;;;;20.80;91.80;;;;;;4207992;28;19981;-63
2022/09/18 10:12:17;;;;;;;;;;;21.10;94.30;;;;;;4211486;28;19931;-63
2022/09/18 10:14:40;;;;;;;;;;;21.30;92.40;;;;;;4208995;28;19982;-62
2022/09/18 10:17:02;;;;;;;;;;;21.20;91.60;;;;;;4206648;28;19930;-62
2022/09/18 10:19:27;;;;;;;;;;;21.10;91.40;;;;;;4206519;28;19935;-62
2022/09/18 10:21:52;;;;;;;;;;;21.40;92.60;;;;;;4212213;28;19931;-63
2022/09/18 10:24:30;;;;;;;;;;;21.50;91.80;;;;;;4198149;28;19940;-63
2022/09/18 10:27:18;;;;;;;;;;;21.50;88.00;;;;;;4201523;28;19951;-63
2022/09/18 10:29:39;;;;;;;;;;;21.50;89.40;;;;;;4201808;28;20368;-63
2022/09/18 10:32:00;;;;;;;;;;;21.90;89.30;;;;;;4198054;28;19935;-62
2022/09/18 10:34:40;;;;;;;;;;;22.40;90.50;;;;;;4203363;28;19934;-62
2022/09/18 10:37:00;;;;;;;;;;;22.90;90.30;;;;;;4197164;28;20299;-63
2022/09/18 10:39:30;;;;;;;;;;;22.80;86.80;;;;;;4197485;28;19930;-63
2022/09/18 10:41:55;;;;;;;;;;;22.30;88.60;;;;;;4213953;28;19974;-63
2022/09/18 10:44:19;;;;;;;;;;;21.80;88.00;;;;;;4213538;28;20322;-63
2022/09/18 10:46:49;;;;;;;;;;;22.30;84.40;;;;;;4212387;28;19930;-62
2022/09/18 10:49:19;;;;;;;;;;;22.50;81.60;;;;;;4214429;28;19946;-63
2022/09/18 10:51:39;;;;;;;;;;;22.90;87.60;;;;;;4214277;28;19970;-63
2022/09/18 10:54:03;;;;;;;;;;;22.90;83.50;;;;;;4213305;28;19934;-62
2022/09/18 10:56:23;;;;;;;;;;;23.40;81.90;;;;;;4214240;28;19973;-63
2022/09/18 10:58:43;;;;;;;;;;;23.30;82.80;;;;;;4214177;28;19931;-63
2022/09/18 11:01:06;;;;;;;;;;;23.80;81.50;;;;;;4219657;28;19935;-63
2022/09/18 11:03:33;;;;;;;;;;;23.90;79.50;;;;;;4213662;28;19969;-63
2022/09/18 11:05:58;;;;;;;;;;;23.50;81.50;;;;;;4213440;28;19931;-63
2022/09/18 11:08:22;;;;;;;;;;;24.10;87.10;;;;;;4213257;28;20314;-63
2022/09/18 11:10:47;;;;;;;;;;;24.10;80.60;;;;;;4214094;28;19935;-62
2022/09/18 11:13:17;;;;;;;;;;;24.20;79.50;;;;;;4213576;28;20015;-63
2022/09/18 11:15:48;;;;;;;;;;;23.80;76.10;;;;;;4213951;28;19934;-63
2022/09/18 11:18:14;;;;;;;;;;;23.80;79.80;;;;;;4213910;28;19935;-63
2022/09/18 11:20:42;;;;;;;;;;;24.30;77.90;;;;;;4212917;28;19931;-63
2022/09/18 11:23:18;;;;;;;;;;;24.00;72.00;;;;;;4230830;28;19933;-63
2022/09/18 11:25:38;;;;;;;;;;;24.10;72.80;;;;;;4220966;28;19931;-63
2022/09/18 11:27:59;;;;;;;;;;;24.00;74.80;;;;;;4212120;28;19990;-62
2022/09/18 11:30:21;;;;;;;;;;;23.80;74.10;;;;;;4213597;28;19981;-63
2022/09/18 11:32:43;;;;;;;;;;;23.60;73.80;;;;;;4213286;28;19977;-63
2022/09/18 11:35:04;;;;;;;;;;;23.10;75.60;;;;;;4204112;28;20018;-63
2022/09/18 11:37:30;;;;;;;;;;;22.90;76.30;;;;;;4213576;28;19964;-63
2022/09/18 11:39:52;;;;;;;;;;;23.10;79.00;;;;;;4213668;28;19947;-62
2022/09/18 11:42:14;;;;;;;;;;;23.00;77.60;;;;;;4213100;28;20353;-63
2022/09/18 11:44:35;;;;;;;;;;;23.20;75.50;;;;;;4212965;28;19934;-62
2022/09/18 11:47:06;;;;;;;;;;;23.30;76.80;;;;;;4212632;28;20483;-62
2022/09/18 11:49:32;;;;;;;;;;;23.10;76.30;;;;;;4212493;28;20402;-62
2022/09/18 11:51:52;;;;;;;;;;;23.00;81.50;;;;;;4213187;28;19955;-63
2022/09/18 11:54:24;;;;;;;;;;;23.30;82.20;;;;;;4213167;28;19951;-62
2022/09/18 11:56:50;;;;;;;;;;;23.60;81.70;;;;;;4212909;28;20367;-62
2022/09/18 11:59:10;;;;;;;;;;;23.40;77.80;;;;;;4201236;28;20020;-62
2022/09/18 12:01:39;;;;;;;;;;;23.20;82.30;;;;;;4211298;28;19935;-62
2022/09/18 12:04:29;;;;;;;;;;;22.70;80.50;;;;;;4212483;28;19935;-63
2022/09/18 12:07:10;;;;;;;;;;;22.30;82.80;;;;;;4177387;28;19955;-62
2022/09/18 12:09:54;;;;;;;;;;;22.80;84.20;;;;;;4177305;28;20024;-62
2022/09/18 12:12:40;;;;;;;;;;;22.60;84.90;;;;;;4177956;28;20018;-63
2022/09/18 12:15:13;;;;;;;;;;;22.70;86.50;;;;;;4176836;28;20537;-62
2022/09/18 12:17:36;;;;;;;;;;;22.80;83.70;;;;;;4177267;28;20035;-62
2022/09/18 12:19:59;;;;;;;;;;;22.50;83.00;;;;;;4177089;28;19936;-62
2022/09/18 12:22:25;;;;;;;;;;;22.60;83.60;;;;;;4177412;28;20027;-62
2022/09/18 12:24:45;;;;;;;;;;;22.70;82.30;;;;;;4176941;28;20438;-62
2022/09/18 12:27:17;;;;;;;;;;;22.40;82.20;;;;;;4177348;28;20375;-62
2022/09/18 12:29:54;;;;;;;;;;;22.30;84.00;;;;;;4177001;28;20499;-62
2022/09/18 12:32:32;;;;;;;;;;;22.40;83.50;;;;;;4176222;28;19935;-62
2022/09/18 12:35:15;;;;;;;;;;;23.20;84.90;;;;;;4176325;28;20307;-62
2022/09/18 12:37:36;;;;;;;;;;;23.30;78.90;;;;;;4176404;28;19934;-62
2022/09/18 12:40:09;;;;;;;;;;;23.00;78.70;;;;;;4160774;28;19935;-62
2022/09/18 12:42:42;;;;;;;;;;;23.50;78.50;;;;;;4176232;28;20020;-61
2022/09/18 12:45:06;;;;;;;;;;;23.50;79.20;;;;;;4212439;28;19978;-61
2022/09/18 12:47:42;;;;;;;;;;;23.70;77.90;;;;;;4211448;28;19938;-61
2022/09/18 12:50:02;;;;;;;;;;;24.10;80.30;;;;;;4195886;28;19939;-61
2022/09/18 12:52:48;;;;;;;;;;;23.70;77.00;;;;;;4209528;28;19967;-61
2022/09/18 12:55:34;;;;;;;;;;;23.40;79.80;;;;;;4210954;28;19930;-61
2022/09/18 12:58:04;;;;;;;;;;;23.90;79.00;;;;;;4212217;28;19934;-62
2022/09/18 13:00:26;;;;;;;;;;;24.30;78.30;;;;;;4211930;28;19935;-61
2022/09/18 13:02:47;;;;;;;;;;;24.30;67.30;;;;;;4212523;28;19973;-61
2022/09/18 13:05:14;;;;;;;;;;;24.20;64.50;;;;;;4212153;28;19977;-61
2022/09/18 13:07:37;;;;;;;;;;;24.00;62.00;;;;;;4211830;28;20015;-61
2022/09/18 13:09:58;;;;;;;;;;;24.10;63.50;;;;;;4211350;28;19989;-61
2022/09/18 13:12:28;;;;;;;;;;;24.10;63.40;;;;;;4206594;28;20302;-61
2022/09/18 13:14:52;;;;;;;;;;;23.90;62.60;;;;;;4226428;28;19974;-61
2022/09/18 13:17:15;;;;;;;;;;;23.80;61.50;;;;;;4210209;28;20030;-61
2022/09/18 13:19:46;;;;;;;;;;;24.00;61.80;;;;;;4211120;28;19931;-61
2022/09/18 13:22:12;;;;;;;;;;;24.20;63.70;;;;;;4206045;28;19953;-61
2022/09/18 13:24:33;;;;;;;;;;;24.20;60.80;;;;;;4211254;28;19954;-61
2022/09/18 13:26:55;;;;;;;;;;;23.90;60.20;;;;;;4212405;28;19977;-62
2022/09/18 13:29:34;;;;;;;;;;;23.80;61.60;;;;;;4212005;28;19977;-61
2022/09/18 13:31:55;;;;;;;;;;;23.70;61.30;;;;;;4213043;28;19970;-61
2022/09/18 13:34:16;;;;;;;;;;;23.40;60.80;;;;;;4198659;28;19979;-61
2022/09/18 13:36:38;;;;;;;;;;;24.10;64.50;;;;;;4208690;28;19930;-61
2022/09/18 13:39:01;;;;;;;;;;;24.40;62.20;;;;;;4215297;28;19931;-61
2022/09/18 13:41:22;;;;;;;;;;;23.70;60.90;;;;;;4214753;28;20300;-61
2022/09/18 13:43:50;;;;;;;;;;;23.50;63.30;;;;;;4198618;28;19932;-61
2022/09/18 13:46:30;;;;;;;;;;;24.00;66.30;;;;;;4209281;28;19935;-61
2022/09/18 13:48:54;;;;;;;;;;;24.30;63.00;;;;;;4215315;28;20333;-61
2022/09/18 13:51:21;;;;;;;;;;;24.20;61.10;;;;;;4215160;28;19935;-61
2022/09/18 13:53:42;;;;;;;;;;;24.50;65.40;;;;;;4198302;28;20488;-61
2022/09/18 13:56:03;;;;;;;;;;;24.90;63.50;;;;;;4211605;28;20023;-61
2022/09/18 13:58:30;;;;;;;;;;;24.90;63.30;;;;;;4214989;28;19946;-61
2022/09/18 14:00:51;;;;;;;;;;;24.30;63.80;;;;;;4215217;28;19931;-61
2022/09/18 14:03:11;;;;;;;;;;;23.80;63.10;;;;;;4214913;28;19954;-61
2022/09/18 14:05:36;;;;;;;;;;;23.70;64.10;;;;;;4215036;28;19935;-62